createdAt,value
2019-05-01T00:01:08.883Z,99.90
2019-05-01T00:03:54.079Z,99.90
2019-05-01T00:06:29.171Z,99.90
2019-05-01T00:08:59.614Z,99.90
2019-05-01T00:11:30.060Z,99.90
2019-05-01T00:14:00.811Z,99.90
2019-05-01T00:16:31.264Z,99.90
2019-05-01T00:19:01.762Z,99.90
2019-05-01T00:21:32.214Z,99.90
2019-05-01T00:24:02.699Z,99.90
2019-05-01T00:26:33.065Z,99.90
2019-05-01T00:29:03.644Z,99.90
2019-05-01T00:31:33.990Z,99.90
2019-05-01T00:34:04.334Z,99.90
2019-05-01T00:36:34.691Z,99.90
2019-05-01T00:39:07.403Z,99.90
2019-05-01T00:41:37.987Z,99.90
2019-05-01T00:44:10.519Z,99.90
2019-05-01T00:46:40.991Z,99.90
2019-05-01T00:49:11.435Z,99.90
2019-05-01T00:51:41.766Z,99.90
2019-05-01T00:54:12.124Z,99.90
2019-05-01T00:57:10.731Z,99.90
2019-05-01T00:59:57.750Z,99.90
2019-05-01T01:02:33.935Z,99.90
2019-05-01T01:05:04.836Z,99.90
2019-05-01T01:07:35.434Z,99.90
2019-05-01T01:10:07.020Z,99.90
2019-05-01T01:12:41.401Z,99.90
2019-05-01T01:15:12.071Z,99.90
2019-05-01T01:17:42.530Z,99.90
2019-05-01T01:20:12.883Z,99.90
2019-05-01T01:22:43.327Z,99.90
2019-05-01T01:25:13.999Z,99.90
2019-05-01T01:27:44.478Z,99.90
2019-05-01T01:30:15.082Z,99.90
2019-05-01T01:32:45.390Z,99.90
2019-05-01T01:35:15.919Z,99.90
2019-05-01T01:37:46.402Z,99.90
2019-05-01T01:40:17.387Z,99.90
2019-05-01T01:42:49.358Z,99.90
2019-05-01T01:45:32.122Z,99.90
2019-05-01T01:48:12.993Z,99.90
2019-05-01T01:50:44.659Z,99.90
2019-05-01T01:53:21.354Z,99.90
2019-05-01T01:55:51.815Z,99.90
2019-05-01T01:58:22.250Z,99.90
2019-05-01T02:01:10.419Z,99.90
2019-05-01T02:03:43.802Z,99.90
2019-05-01T02:06:14.228Z,99.90
2019-05-01T02:08:56.006Z,99.90
2019-05-01T02:11:16.657Z,99.90
2019-05-01T02:13:47.078Z,99.90
2019-05-01T02:16:17.534Z,99.90
2019-05-01T02:18:47.812Z,99.90
2019-05-01T02:21:18.279Z,99.90
2019-05-01T02:23:48.627Z,99.90
2019-05-01T02:26:20.782Z,99.90
2019-05-01T02:29:08.146Z,99.90
2019-05-01T02:31:43.555Z,99.90
2019-05-01T02:34:14.582Z,99.90
2019-05-01T02:36:45.648Z,99.90
2019-05-01T02:39:16.324Z,99.90
2019-05-01T02:41:46.972Z,99.90
2019-05-01T02:44:29.047Z,99.90
2019-05-01T02:47:00.790Z,99.90
2019-05-01T02:49:42.557Z,99.90
2019-05-01T02:52:13.002Z,99.90
2019-05-01T02:54:45.297Z,99.90
2019-05-01T02:57:18.260Z,99.90
2019-05-01T02:59:51.318Z,99.90
2019-05-01T03:02:24.315Z,99.90
2019-05-01T03:04:55.263Z,99.90
2019-05-01T03:07:27.201Z,99.90
2019-05-01T03:09:57.740Z,99.90
2019-05-01T03:12:29.708Z,99.90
2019-05-01T03:15:01.446Z,99.90
2019-05-01T03:17:48.016Z,99.90
2019-05-01T03:20:29.754Z,99.90
2019-05-01T03:23:16.064Z,99.90
2019-05-01T03:25:46.435Z,99.90
2019-05-01T03:28:16.887Z,99.90
2019-05-01T03:30:47.385Z,99.90
2019-05-01T03:33:17.829Z,99.90
2019-05-01T03:35:48.571Z,99.90
2019-05-01T03:38:19.099Z,99.90
2019-05-01T03:40:50.045Z,99.90
2019-05-01T03:43:20.499Z,99.90
2019-05-01T03:45:50.850Z,99.90
2019-05-01T03:48:21.954Z,99.90
2019-05-01T03:50:52.338Z,99.90
2019-05-01T03:53:22.951Z,99.90
2019-05-01T03:55:53.673Z,99.90
2019-05-01T03:58:24.504Z,99.90
2019-05-01T04:01:07.148Z,99.90
2019-05-01T04:03:56.347Z,99.90
2019-05-01T04:06:26.691Z,99.90
2019-05-01T04:08:57.091Z,99.90
2019-05-01T04:11:27.608Z,99.90
2019-05-01T04:13:58.875Z,99.90
2019-05-01T04:16:29.335Z,99.90
2019-05-01T04:18:59.807Z,99.90
2019-05-01T04:21:35.450Z,99.90
2019-05-01T04:24:05.939Z,99.90
2019-05-01T04:26:36.307Z,99.90
2019-05-01T04:29:28.642Z,99.90
2019-05-01T04:32:06.053Z,99.90
2019-05-01T04:34:42.147Z,99.90
2019-05-01T04:37:13.847Z,99.90
2019-05-01T04:39:44.312Z,99.90
2019-05-01T04:42:14.655Z,99.90
2019-05-01T04:44:45.740Z,99.90
2019-05-01T04:47:16.195Z,99.90
2019-05-01T04:49:46.563Z,99.90
2019-05-01T04:52:17.411Z,99.90
2019-05-01T04:54:47.878Z,98.40
2019-05-01T04:57:18.439Z,98.20
2019-05-01T04:59:48.915Z,98.90
2019-05-01T05:02:27.539Z,95.40
2019-05-01T05:04:57.915Z,93.30
2019-05-01T05:07:28.315Z,90.80
2019-05-01T05:09:58.787Z,88.80
2019-05-01T05:12:49.857Z,87.20
2019-05-01T05:15:36.582Z,87.50
2019-05-01T05:18:06.958Z,81.40
2019-05-01T05:20:37.915Z,79.30
2019-05-01T05:23:08.483Z,75.80
2019-05-01T05:25:38.847Z,77.80
2019-05-01T05:28:10.261Z,72.90
2019-05-01T05:30:41.743Z,70.90
2019-05-01T05:33:18.594Z,65.80
2019-05-01T05:35:44.882Z,66.80
2019-05-01T05:38:27.682Z,62.10
2019-05-01T05:41:00.494Z,59.00
2019-05-01T05:43:30.775Z,59.10
2019-05-01T05:46:01.227Z,62.50
2019-05-01T05:48:31.669Z,59.70
2019-05-01T05:51:21.100Z,58.70
2019-05-01T05:53:54.343Z,59.30
2019-05-01T05:56:28.699Z,58.40
2019-05-01T05:59:05.923Z,58.40
2019-05-01T06:01:46.818Z,54.80
2019-05-01T06:04:49.044Z,53.80
2019-05-01T06:07:30.188Z,53.20
2019-05-01T06:10:08.546Z,52.50
2019-05-01T06:12:49.740Z,51.80
2019-05-01T06:15:27.402Z,50.00
2019-05-01T06:18:05.932Z,48.70
2019-05-01T06:20:46.230Z,46.40
2019-05-01T06:23:24.727Z,45.70
2019-05-01T06:26:00.329Z,45.40
2019-05-01T06:28:29.942Z,44.00
2019-05-01T06:31:23.228Z,43.00
2019-05-01T06:33:53.201Z,42.80
2019-05-01T06:36:23.870Z,42.30
2019-05-01T06:38:54.530Z,41.90
2019-05-01T06:41:28.752Z,41.50
2019-05-01T06:44:07.566Z,40.90
2019-05-01T06:47:09.259Z,39.80
2019-05-01T06:49:46.995Z,40.00
2019-05-01T06:52:24.951Z,40.00
2019-05-01T06:54:53.708Z,40.20
2019-05-01T06:57:24.512Z,39.90
2019-05-01T06:59:55.098Z,40.70
2019-05-01T07:02:29.709Z,39.00
2019-05-01T07:04:57.910Z,38.90
2019-05-01T07:07:28.418Z,40.10
2019-05-01T07:09:59.605Z,38.80
2019-05-01T07:12:31.284Z,38.50
2019-05-01T07:15:02.323Z,39.10
2019-05-01T07:17:32.994Z,38.70
2019-05-01T07:20:26.228Z,37.90
2019-05-01T07:22:56.963Z,38.90
2019-05-01T07:25:27.294Z,38.50
2019-05-01T07:27:58.577Z,39.00
2019-05-01T07:30:41.602Z,38.50
2019-05-01T07:33:16.758Z,38.60
2019-05-01T07:35:44.663Z,38.20
2019-05-01T07:38:14.930Z,37.80
2019-05-01T07:40:45.638Z,37.20
2019-05-01T07:43:36.593Z,37.60
2019-05-01T07:46:18.442Z,38.00
2019-05-01T07:48:48.272Z,39.00
2019-05-01T07:51:18.635Z,38.50
2019-05-01T07:53:49.704Z,39.50
2019-05-01T07:56:22.849Z,38.60
2019-05-01T07:58:53.403Z,38.90
2019-05-01T08:01:39.807Z,39.00
2019-05-01T08:04:13.897Z,39.70
2019-05-01T08:06:42.631Z,37.00
2019-05-01T08:09:15.156Z,36.60
2019-05-01T08:11:45.513Z,38.10
2019-05-01T08:14:18.403Z,40.60
2019-05-01T08:16:48.334Z,40.30
2019-05-01T08:19:26.860Z,39.90
2019-05-01T08:22:10.346Z,40.90
2019-05-01T08:24:40.886Z,37.80
2019-05-01T08:27:20.313Z,37.40
2019-05-01T08:30:17.498Z,37.00
2019-05-01T08:32:50.118Z,38.00
2019-05-01T08:35:22.564Z,37.90
2019-05-01T08:37:53.773Z,38.00
2019-05-01T08:40:25.018Z,38.80
2019-05-01T08:42:55.390Z,38.30
2019-05-01T08:45:47.498Z,37.70
2019-05-01T08:48:35.870Z,40.30
2019-05-01T08:51:06.846Z,38.60
2019-05-01T08:53:37.320Z,40.80
2019-05-01T08:56:09.775Z,39.60
2019-05-01T08:58:39.914Z,40.10
2019-05-01T09:01:10.873Z,40.50
2019-05-01T09:03:42.356Z,39.20
2019-05-01T09:06:12.830Z,39.10
2019-05-01T09:08:43.212Z,38.80
2019-05-01T09:11:13.544Z,39.20
2019-05-01T09:13:44.003Z,39.70
2019-05-01T09:16:14.395Z,38.80
2019-05-01T09:18:44.767Z,38.70
2019-05-01T09:21:15.132Z,39.40
2019-05-01T09:23:46.076Z,40.00
2019-05-01T09:26:50.155Z,40.80
2019-05-01T09:29:26.705Z,39.60
2019-05-01T09:31:57.105Z,40.70
2019-05-01T09:34:27.376Z,39.90
2019-05-01T09:36:57.740Z,40.10
2019-05-01T09:39:29.527Z,40.20
2019-05-01T09:41:59.867Z,40.40
2019-05-01T09:44:30.154Z,40.70
2019-05-01T09:47:00.418Z,38.90
2019-05-01T09:49:30.819Z,41.40
2019-05-01T09:52:13.514Z,39.50
2019-05-01T09:55:00.826Z,41.10
2019-05-01T09:57:31.294Z,40.10
2019-05-01T10:00:01.591Z,38.50
2019-05-01T10:02:32.050Z,38.50
2019-05-01T10:05:06.741Z,41.00
2019-05-01T10:07:34.407Z,40.70
2019-05-01T10:10:05.375Z,42.10
2019-05-01T10:12:35.911Z,41.60
2019-05-01T10:15:06.886Z,41.30
2019-05-01T10:17:37.322Z,40.70
2019-05-01T10:20:07.682Z,39.40
2019-05-01T10:22:38.742Z,40.70
2019-05-01T10:25:12.296Z,38.80
2019-05-01T10:27:44.363Z,40.00
2019-05-01T10:30:45.719Z,39.40
2019-05-01T10:33:20.194Z,39.10
2019-05-01T10:36:17.686Z,41.00
2019-05-01T10:38:44.967Z,38.90
2019-05-01T10:41:13.810Z,36.00
2019-05-01T10:43:44.146Z,39.60
2019-05-01T10:46:14.616Z,40.80
2019-05-01T10:48:44.983Z,39.80
2019-05-01T10:51:15.323Z,41.20
2019-05-01T10:53:45.794Z,39.90
2019-05-01T10:56:16.134Z,38.90
2019-05-01T10:58:46.810Z,37.00
2019-05-01T11:01:25.422Z,36.80
2019-05-01T11:03:55.885Z,36.60
2019-05-01T11:06:26.378Z,38.60
2019-05-01T11:08:56.743Z,40.10
2019-05-01T11:11:27.094Z,40.20
2019-05-01T11:13:57.458Z,38.10
2019-05-01T11:16:27.743Z,37.50
2019-05-01T11:18:58.311Z,35.50
2019-05-01T11:21:28.756Z,36.10
2019-05-01T11:23:59.211Z,38.50
2019-05-01T11:26:29.562Z,38.20
2019-05-01T11:29:00.831Z,36.90
2019-05-01T11:32:08.304Z,35.80
2019-05-01T11:34:51.270Z,38.20
2019-05-01T11:37:46.283Z,36.10
2019-05-01T11:40:30.206Z,36.60
2019-05-01T11:43:02.694Z,36.80
2019-05-01T11:45:32.567Z,36.80
2019-05-01T11:48:03.081Z,36.60
2019-05-01T11:50:33.443Z,36.60
2019-05-01T11:53:03.902Z,36.50
2019-05-01T11:55:34.278Z,36.30
2019-05-01T11:58:04.622Z,38.20
2019-05-01T12:00:34.886Z,39.00
2019-05-01T12:03:05.758Z,35.60
2019-05-01T12:05:36.298Z,38.10
2019-05-01T12:08:06.655Z,37.80
2019-05-01T12:10:36.938Z,36.90
2019-05-01T12:13:07.446Z,37.00
2019-05-01T12:15:37.831Z,36.20
2019-05-01T12:18:08.331Z,39.20
2019-05-01T12:20:38.787Z,36.40
2019-05-01T12:23:09.283Z,35.10
2019-05-01T12:25:39.738Z,34.90
2019-05-01T12:28:10.158Z,36.00
2019-05-01T12:30:40.518Z,38.40
2019-05-01T12:33:10.854Z,37.10
2019-05-01T12:35:42.039Z,36.50
2019-05-01T12:38:12.367Z,35.50
2019-05-01T12:40:45.050Z,37.00
2019-05-01T12:43:15.517Z,37.10
2019-05-01T12:45:47.425Z,36.00
2019-05-01T12:48:17.876Z,37.30
2019-05-01T12:50:50.219Z,36.90
2019-05-01T12:53:27.945Z,36.60
2019-05-01T12:56:16.538Z,36.50
2019-05-01T12:58:48.298Z,36.70
2019-05-01T13:01:18.890Z,36.90
2019-05-01T13:03:49.158Z,37.60
2019-05-01T13:06:19.526Z,37.40
2019-05-01T13:08:50.018Z,38.80
2019-05-01T13:11:20.389Z,38.20
2019-05-01T13:13:50.747Z,35.60
2019-05-01T13:16:21.100Z,37.10
2019-05-01T13:18:51.475Z,36.60
2019-05-01T13:21:21.762Z,37.00
2019-05-01T13:23:52.298Z,38.10
2019-05-01T13:26:37.512Z,36.70
2019-05-01T13:29:26.727Z,38.40
2019-05-01T13:32:16.134Z,38.40
2019-05-01T13:34:46.576Z,39.20
2019-05-01T13:37:16.934Z,39.80
2019-05-01T13:39:47.207Z,40.00
2019-05-01T13:42:17.536Z,39.80
2019-05-01T13:44:47.971Z,41.00
2019-05-01T13:47:18.336Z,40.80
2019-05-01T13:49:48.790Z,40.50
2019-05-01T13:52:19.446Z,40.90
2019-05-01T13:54:49.974Z,41.50
2019-05-01T13:57:20.246Z,43.10
2019-05-01T13:59:53.799Z,41.30
2019-05-01T14:02:24.072Z,41.30
2019-05-01T14:04:54.535Z,42.30
2019-05-01T14:07:24.886Z,41.00
2019-05-01T14:09:55.439Z,40.60
2019-05-01T14:12:25.802Z,41.50
2019-05-01T14:14:56.154Z,40.80
2019-05-01T14:17:26.727Z,40.60
2019-05-01T14:20:03.314Z,40.60
2019-05-01T14:22:40.979Z,41.90
2019-05-01T14:25:11.602Z,41.20
2019-05-01T14:27:42.335Z,39.60
2019-05-01T14:30:12.882Z,41.60
2019-05-01T14:32:43.226Z,43.30
2019-05-01T14:35:14.023Z,42.30
2019-05-01T14:37:44.390Z,42.20
2019-05-01T14:40:14.775Z,41.90
2019-05-01T14:42:45.213Z,41.10
2019-05-01T14:45:16.417Z,39.90
2019-05-01T14:47:46.784Z,40.70
2019-05-01T14:50:17.298Z,42.30
2019-05-01T14:52:47.699Z,41.60
2019-05-01T14:55:18.120Z,41.50
2019-05-01T14:57:48.899Z,41.70
2019-05-01T15:00:19.837Z,41.70
2019-05-01T15:02:50.603Z,41.50
2019-05-01T15:05:21.082Z,39.80
2019-05-01T15:07:51.555Z,41.90
2019-05-01T15:10:22.483Z,41.10
2019-05-01T15:12:54.672Z,41.80
2019-05-01T15:15:33.015Z,42.30
2019-05-01T15:18:09.399Z,42.00
2019-05-01T15:20:39.830Z,41.40
2019-05-01T15:23:10.237Z,40.90
2019-05-01T15:25:40.692Z,41.70
2019-05-01T15:28:11.255Z,42.40
2019-05-01T15:30:41.786Z,41.70
2019-05-01T15:33:12.459Z,41.20
2019-05-01T15:35:42.839Z,41.80
2019-05-01T15:38:13.316Z,42.10
2019-05-01T15:41:05.602Z,41.60
2019-05-01T15:43:38.158Z,40.90
2019-05-01T15:46:08.494Z,42.00
2019-05-01T15:48:38.879Z,42.20
2019-05-01T15:51:09.232Z,41.70
2019-05-01T15:53:39.672Z,41.80
2019-05-01T15:56:10.123Z,41.50
2019-05-01T15:58:40.407Z,42.70
2019-05-01T16:01:10.779Z,42.90
2019-05-01T16:03:41.058Z,42.60
2019-05-01T16:06:11.599Z,42.70
2019-05-01T16:08:42.130Z,42.70
2019-05-01T16:11:21.306Z,42.90
2019-05-01T16:13:54.507Z,42.50
2019-05-01T16:16:25.001Z,43.50
2019-05-01T16:18:55.290Z,43.20
2019-05-01T16:21:25.667Z,43.80
2019-05-01T16:23:56.027Z,43.60
2019-05-01T16:26:31.807Z,43.40
2019-05-01T16:29:02.334Z,43.20
2019-05-01T16:31:32.971Z,43.00
2019-05-01T16:34:03.639Z,42.70
2019-05-01T16:36:33.992Z,42.90
2019-05-01T16:39:39.443Z,42.70
2019-05-01T16:42:09.843Z,43.50
2019-05-01T16:44:40.657Z,43.20
2019-05-01T16:47:11.674Z,43.90
2019-05-01T16:49:42.110Z,44.60
2019-05-01T16:52:13.259Z,44.60
2019-05-01T16:54:43.590Z,44.70
2019-05-01T16:57:14.478Z,44.10
2019-05-01T16:59:44.918Z,43.60
2019-05-01T17:02:40.391Z,43.50
2019-05-01T17:05:30.129Z,45.30
2019-05-01T17:08:36.030Z,44.30
2019-05-01T17:10:59.534Z,44.70
2019-05-01T17:13:30.074Z,44.20
2019-05-01T17:16:00.640Z,45.30
2019-05-01T17:18:30.998Z,44.80
2019-05-01T17:21:01.659Z,45.00
2019-05-01T17:23:32.023Z,45.20
2019-05-01T17:26:02.302Z,45.60
2019-05-01T17:28:32.969Z,46.00
2019-05-01T17:31:03.553Z,45.30
2019-05-01T17:33:33.927Z,45.60
2019-05-01T17:36:04.260Z,46.20
2019-05-01T17:38:34.744Z,46.60
2019-05-01T17:41:05.271Z,46.90
2019-05-01T17:43:35.794Z,46.60
2019-05-01T17:46:10.849Z,46.20
2019-05-01T17:48:38.155Z,46.80
2019-05-01T17:51:08.502Z,47.20
2019-05-01T17:53:38.979Z,48.00
2019-05-01T17:56:09.925Z,48.30
2019-05-01T17:58:41.482Z,48.70
2019-05-01T18:01:36.843Z,49.70
2019-05-01T18:04:35.120Z,50.90
2019-05-01T18:07:05.695Z,52.20
2019-05-01T18:09:36.094Z,51.10
2019-05-01T18:12:06.611Z,51.20
2019-05-01T18:14:37.291Z,51.40
2019-05-01T18:17:07.907Z,51.40
2019-05-01T18:19:38.370Z,51.10
2019-05-01T18:22:32.082Z,51.20
2019-05-01T18:25:12.970Z,52.10
2019-05-01T18:28:05.340Z,53.40
2019-05-01T18:30:38.372Z,54.70
2019-05-01T18:33:09.032Z,55.80
2019-05-01T18:35:39.378Z,56.60
2019-05-01T18:38:38.166Z,57.30
2019-05-01T18:41:30.287Z,57.80
2019-05-01T18:44:00.766Z,58.90
2019-05-01T18:46:31.309Z,59.60
2019-05-01T18:49:01.868Z,59.90
2019-05-01T18:51:36.239Z,60.60
2019-05-01T18:54:04.583Z,61.00
2019-05-01T18:56:38.114Z,61.80
2019-05-01T18:59:08.042Z,62.50
2019-05-01T19:01:38.462Z,62.90
2019-05-01T19:04:08.883Z,63.30
2019-05-01T19:06:41.334Z,64.70
2019-05-01T19:09:15.052Z,65.90
2019-05-01T19:11:43.451Z,66.30
2019-05-01T19:14:14.561Z,66.60
2019-05-01T19:16:45.674Z,66.50
2019-05-01T19:19:17.107Z,67.00
2019-05-01T19:21:48.361Z,67.80
2019-05-01T19:24:19.020Z,68.70
2019-05-01T19:26:49.423Z,69.40
2019-05-01T19:29:19.932Z,70.00
2019-05-01T19:31:50.411Z,71.50
2019-05-01T19:34:20.760Z,72.60
2019-05-01T19:36:51.614Z,73.00
2019-05-01T19:39:22.327Z,75.00
2019-05-01T19:41:54.544Z,77.80
2019-05-01T19:44:24.909Z,80.70
2019-05-01T19:46:55.376Z,79.70
2019-05-01T19:49:29.779Z,81.10
2019-05-01T19:52:00.600Z,83.80
2019-05-01T19:54:30.222Z,85.70
2019-05-01T19:57:02.428Z,87.00
2019-05-01T19:59:32.863Z,87.00
2019-05-01T20:02:03.456Z,89.20
2019-05-01T20:04:35.240Z,90.10
2019-05-01T20:07:10.646Z,88.40
2019-05-01T20:09:40.355Z,89.60
2019-05-01T20:12:12.021Z,90.30
2019-05-01T20:14:42.555Z,91.10
2019-05-01T20:17:13.331Z,91.30
2019-05-01T20:19:44.591Z,91.70
2019-05-01T20:22:18.147Z,92.60
2019-05-01T20:24:53.222Z,92.90
2019-05-01T20:27:27.530Z,93.50
2019-05-01T20:29:57.386Z,93.50
2019-05-01T20:32:29.935Z,93.80
2019-05-01T20:35:00.545Z,94.30
2019-05-01T20:37:32.963Z,94.10
2019-05-01T20:40:10.747Z,94.40
2019-05-01T20:42:35.549Z,94.60
2019-05-01T20:45:12.793Z,95.00
2019-05-01T20:47:45.560Z,95.90
2019-05-01T20:50:13.539Z,95.20
2019-05-01T20:52:42.442Z,95.50
2019-05-01T20:55:12.798Z,96.50
2019-05-01T20:57:45.648Z,96.70
2019-05-01T21:00:17.054Z,96.60
2019-05-01T21:02:48.653Z,96.90
2019-05-01T21:05:36.022Z,97.30
2019-05-01T21:08:10.251Z,97.30
2019-05-01T21:10:50.646Z,97.40
2019-05-01T21:13:23.316Z,98.40
2019-05-01T21:15:56.463Z,98.00
2019-05-01T21:18:25.923Z,96.90
2019-05-01T21:20:56.843Z,96.60
2019-05-01T21:23:27.595Z,95.10
2019-05-01T21:25:57.933Z,94.10
2019-05-01T21:28:28.290Z,94.10
2019-05-01T21:30:58.678Z,93.50
2019-05-01T21:33:28.995Z,93.40
2019-05-01T21:35:59.569Z,94.10
2019-05-01T21:38:31.319Z,94.60
2019-05-01T21:41:02.789Z,95.50
2019-05-01T21:43:37.017Z,95.80
2019-05-01T21:46:05.647Z,96.00
2019-05-01T21:48:35.990Z,96.30
2019-05-01T21:51:07.455Z,96.70
2019-05-01T21:53:42.729Z,96.70
2019-05-01T21:56:10.111Z,96.90
2019-05-01T21:58:40.511Z,97.90
2019-05-01T22:01:11.842Z,99.00
2019-05-01T22:03:42.202Z,98.50
2019-05-01T22:06:15.440Z,99.50
2019-05-01T22:08:44.459Z,99.90
2019-05-01T22:11:14.858Z,99.90
2019-05-01T22:13:45.257Z,99.90
2019-05-01T22:16:23.744Z,99.90
2019-05-01T22:19:06.199Z,99.90
2019-05-01T22:21:54.517Z,99.90
2019-05-01T22:24:38.370Z,99.90
2019-05-01T22:27:22.863Z,99.90
2019-05-01T22:30:10.641Z,99.90
2019-05-01T22:32:41.404Z,99.90
2019-05-01T22:35:33.429Z,99.90
2019-05-01T22:38:05.560Z,99.90
2019-05-01T22:41:06.570Z,99.90
2019-05-01T22:43:32.047Z,99.90
2019-05-01T22:46:03.468Z,99.90
2019-05-01T22:48:33.754Z,99.90
2019-05-01T22:51:10.909Z,99.90
2019-05-01T22:53:41.254Z,99.90
2019-05-01T22:56:11.645Z,99.90
2019-05-01T22:58:42.006Z,99.90
2019-05-01T23:01:13.330Z,99.90
2019-05-01T23:03:54.012Z,99.90
2019-05-01T23:06:24.594Z,99.90
2019-05-01T23:08:54.927Z,99.90
2019-05-01T23:11:27.063Z,99.90
2019-05-01T23:13:57.548Z,99.90
2019-05-01T23:16:31.738Z,99.90
2019-05-01T23:19:02.090Z,99.90
2019-05-01T23:21:32.438Z,99.90
2019-05-01T23:24:03.564Z,99.90
2019-05-01T23:26:34.003Z,99.90
2019-05-01T23:29:04.482Z,99.90
2019-05-01T23:31:35.029Z,99.90
2019-05-01T23:34:05.390Z,99.90
2019-05-01T23:36:35.751Z,99.90
2019-05-01T23:39:06.810Z,99.90
2019-05-01T23:41:45.653Z,99.90
2019-05-01T23:44:09.170Z,99.90
2019-05-01T23:46:39.483Z,99.90
2019-05-01T23:49:09.903Z,99.90
2019-05-01T23:51:40.283Z,99.90
2019-05-01T23:54:10.644Z,99.90
2019-05-01T23:56:41.007Z,99.90
2019-05-01T23:59:11.587Z,99.90
